createdAt,value
2023-01-12T00:00:47.287Z,32.78
2023-01-12T00:03:18.694Z,33.93
2023-01-12T00:05:50.129Z,35.40
2023-01-12T00:08:21.535Z,36.17
2023-01-12T00:10:56.456Z,41.55
2023-01-12T00:13:29.240Z,41.37
2023-01-12T00:16:01.952Z,44.58
2023-01-12T00:18:33.428Z,41.92
2023-01-12T00:21:05.021Z,44.73
2023-01-12T00:23:36.768Z,49.78
2023-01-12T00:26:08.852Z,56.78
2023-01-12T00:28:40.321Z,51.33
2023-01-12T00:31:11.809Z,53.20
2023-01-12T00:33:43.248Z,61.35
2023-01-12T00:36:17.685Z,64.03
2023-01-12T00:38:49.174Z,60.53
2023-01-12T00:41:20.659Z,64.07
2023-01-12T00:43:52.104Z,63.88
2023-01-12T00:46:31.310Z,63.70
2023-01-12T00:49:02.787Z,70.60
2023-01-12T00:51:34.240Z,72.75
2023-01-12T00:54:05.797Z,75.63
2023-01-12T00:56:38.764Z,71.75
2023-01-12T00:59:10.231Z,76.22
2023-01-12T01:01:41.761Z,79.28
2023-01-12T01:04:13.368Z,76.85
2023-01-12T01:06:44.895Z,79.32
2023-01-12T01:09:16.351Z,81.03
2023-01-12T01:11:47.824Z,70.97
2023-01-12T01:14:19.287Z,71.63
2023-01-12T01:16:51.070Z,65.93
2023-01-12T01:19:22.659Z,68.15
2023-01-12T01:21:54.089Z,67.40
2023-01-12T01:24:25.559Z,64.15
2023-01-12T01:26:57.000Z,57.88
2023-01-12T01:29:28.468Z,52.00
2023-01-12T01:31:59.910Z,50.13
2023-01-12T01:34:31.479Z,47.88
2023-01-12T01:37:03.343Z,43.33
2023-01-12T01:39:34.771Z,44.30
2023-01-12T01:42:06.254Z,44.33
2023-01-12T01:44:43.835Z,36.33
2023-01-12T01:47:25.411Z,37.43
2023-01-12T01:50:01.185Z,37.38
2023-01-12T01:52:39.497Z,34.60
2023-01-12T01:55:16.786Z,34.58
2023-01-12T01:57:55.203Z,32.55
2023-01-12T02:00:27.464Z,39.08
2023-01-12T02:03:03.069Z,35.30
2023-01-12T02:05:37.480Z,35.33
2023-01-12T02:08:16.639Z,35.13
2023-01-12T02:10:49.986Z,38.97
2023-01-12T02:13:22.293Z,44.05
2023-01-12T02:16:01.015Z,44.33
2023-01-12T02:18:57.727Z,43.55
2023-01-12T02:21:40.832Z,44.58
2023-01-12T02:24:30.845Z,48.25
2023-01-12T02:27:26.529Z,51.95
2023-01-12T02:30:19.941Z,48.92
2023-01-12T02:33:18.367Z,49.70
2023-01-12T02:35:57.944Z,43.97
2023-01-12T02:38:34.964Z,34.95
2023-01-12T02:41:21.151Z,36.77
2023-01-12T02:43:53.005Z,35.65
2023-01-12T02:46:29.799Z,32.23
2023-01-12T02:49:06.518Z,28.55
2023-01-12T02:51:46.238Z,28.23
2023-01-12T02:54:20.322Z,35.47
2023-01-12T02:57:00.566Z,25.75
2023-01-12T02:59:39.534Z,27.58
2023-01-12T03:02:23.902Z,28.25
2023-01-12T03:04:55.340Z,24.02
2023-01-12T03:07:47.410Z,24.57
2023-01-12T03:10:43.929Z,22.02
2023-01-12T03:13:16.723Z,26.02
2023-01-12T03:15:54.209Z,18.92
2023-01-12T03:18:36.737Z,16.60
2023-01-12T03:21:30.467Z,15.45
2023-01-12T03:24:08.511Z,13.20
2023-01-12T03:27:07.434Z,13.73
2023-01-12T03:29:51.183Z,16.57
2023-01-12T03:32:23.385Z,17.45
2023-01-12T03:34:55.022Z,15.13
2023-01-12T03:37:36.143Z,14.50
2023-01-12T03:40:14.651Z,16.00
2023-01-12T03:42:58.944Z,13.67
2023-01-12T03:45:33.430Z,16.67
2023-01-12T03:48:15.744Z,13.52
2023-01-12T03:50:56.800Z,17.30
2023-01-12T03:53:30.912Z,11.70
2023-01-12T03:56:06.702Z,11.65
2023-01-12T03:58:38.406Z,10.23
2023-01-12T04:01:09.952Z,13.93
2023-01-12T04:03:41.524Z,14.68
2023-01-12T04:06:12.992Z,11.93
2023-01-12T04:08:44.380Z,12.32
2023-01-12T04:11:15.790Z,10.90
2023-01-12T04:13:47.291Z,9.65
2023-01-12T04:16:18.914Z,7.22
2023-01-12T04:18:50.408Z,11.33
2023-01-12T04:21:21.856Z,8.90
2023-01-12T04:23:53.319Z,7.15
2023-01-12T04:26:24.726Z,8.75
2023-01-12T04:28:56.148Z,7.90
2023-01-12T04:31:27.668Z,10.75
2023-01-12T04:33:59.188Z,7.53
2023-01-12T04:36:30.644Z,11.13
2023-01-12T04:39:02.184Z,8.63
2023-01-12T04:41:33.679Z,8.32
2023-01-12T04:44:05.156Z,8.65
2023-01-12T04:46:36.719Z,8.32
2023-01-12T04:49:08.166Z,5.93
2023-01-12T04:51:39.602Z,8.90
2023-01-12T04:54:11.121Z,9.65
2023-01-12T04:56:42.566Z,9.73
2023-01-12T04:59:17.534Z,7.40
2023-01-12T05:01:48.994Z,12.85
2023-01-12T05:04:20.523Z,9.93
2023-01-12T05:06:51.988Z,8.75
2023-01-12T05:09:23.453Z,9.40
2023-01-12T05:11:54.847Z,12.63
2023-01-12T05:14:26.298Z,9.65
2023-01-12T05:16:57.732Z,9.67
2023-01-12T05:19:29.160Z,12.50
2023-01-12T05:22:00.719Z,17.38
2023-01-12T05:24:32.140Z,15.85
2023-01-12T05:27:03.594Z,23.08
2023-01-12T05:29:35.050Z,23.60
2023-01-12T05:32:06.561Z,24.05
2023-01-12T05:34:38.175Z,23.48
2023-01-12T05:37:09.728Z,24.88
2023-01-12T05:39:41.131Z,20.67
2023-01-12T05:42:12.532Z,25.08
2023-01-12T05:44:43.937Z,26.20
2023-01-12T05:47:15.383Z,29.63
2023-01-12T05:49:46.801Z,31.63
2023-01-12T05:52:18.259Z,31.02
2023-01-12T05:54:49.696Z,29.35
2023-01-12T05:57:21.206Z,27.85
2023-01-12T05:59:52.656Z,39.50
2023-01-12T06:02:24.164Z,35.83
2023-01-12T06:04:55.618Z,41.87
2023-01-12T06:07:27.115Z,53.72
2023-01-12T06:09:58.563Z,46.13
2023-01-12T06:12:29.966Z,56.85
2023-01-12T06:15:01.493Z,49.47
2023-01-12T06:17:32.940Z,51.67
2023-01-12T06:20:05.291Z,53.30
2023-01-12T06:22:36.734Z,51.60
2023-01-12T06:25:08.770Z,52.13
2023-01-12T06:27:40.193Z,55.50
2023-01-12T06:30:12.092Z,56.83
2023-01-12T06:32:43.499Z,55.13
2023-01-12T06:35:19.631Z,61.28
2023-01-12T06:37:55.779Z,62.13
2023-01-12T06:40:27.229Z,54.95
2023-01-12T06:42:58.658Z,56.72
2023-01-12T06:45:30.099Z,56.25
2023-01-12T06:48:01.556Z,50.28
2023-01-12T06:50:33.977Z,55.00
2023-01-12T06:53:06.335Z,58.90
2023-01-12T06:55:37.781Z,52.13
2023-01-12T06:58:09.215Z,50.67
2023-01-12T07:00:40.713Z,46.47
2023-01-12T07:03:19.548Z,45.53
2023-01-12T07:05:51.028Z,48.78
2023-01-12T07:08:22.500Z,46.95
2023-01-12T07:10:55.423Z,49.30
2023-01-12T07:13:26.831Z,52.03
2023-01-12T07:15:59.627Z,50.08
2023-01-12T07:18:31.237Z,45.92
2023-01-12T07:21:07.810Z,39.80
2023-01-12T07:23:39.310Z,43.40
2023-01-12T07:26:11.291Z,37.42
2023-01-12T07:28:42.766Z,37.20
2023-01-12T07:31:14.256Z,38.85
2023-01-12T07:33:45.770Z,38.42
2023-01-12T07:36:17.219Z,33.63
2023-01-12T07:38:48.710Z,42.65
2023-01-12T07:41:20.226Z,38.23
2023-01-12T07:43:51.642Z,43.63
2023-01-12T07:46:23.772Z,42.42
2023-01-12T07:48:55.280Z,41.45
2023-01-12T07:51:26.768Z,45.60
2023-01-12T07:53:58.227Z,38.22
2023-01-12T07:56:29.642Z,39.53
2023-01-12T07:59:01.245Z,40.80
2023-01-12T08:01:32.773Z,45.10
2023-01-12T08:04:04.378Z,50.53
2023-01-12T08:06:35.869Z,45.72
2023-01-12T08:09:07.367Z,42.40
2023-01-12T08:11:38.812Z,49.65
2023-01-12T08:14:24.011Z,43.45
2023-01-12T08:16:57.644Z,44.80
2023-01-12T08:19:35.160Z,44.80
2023-01-12T08:22:12.618Z,51.47
2023-01-12T08:24:54.218Z,36.42
2023-01-12T08:27:29.124Z,39.55
2023-01-12T08:30:00.811Z,41.30
2023-01-12T08:32:32.780Z,37.67
2023-01-12T08:35:04.955Z,46.53
2023-01-12T08:37:36.422Z,43.05
2023-01-12T08:40:08.848Z,44.27
2023-01-12T08:42:40.398Z,43.13
2023-01-12T08:45:11.811Z,46.22
2023-01-12T08:47:43.283Z,45.85
2023-01-12T08:50:14.996Z,42.75
2023-01-12T08:52:46.428Z,44.25
2023-01-12T08:55:17.902Z,47.00
2023-01-12T08:57:49.367Z,46.07
2023-01-12T09:00:21.041Z,47.35
2023-01-12T09:02:52.471Z,53.77
2023-01-12T09:05:23.912Z,42.70
2023-01-12T09:07:55.318Z,50.67
2023-01-12T09:10:26.721Z,52.83
2023-01-12T09:12:58.134Z,44.53
2023-01-12T09:15:30.143Z,45.75
2023-01-12T09:18:01.594Z,40.92
2023-01-12T09:20:33.076Z,46.63
2023-01-12T09:23:04.494Z,44.22
2023-01-12T09:25:35.906Z,42.65
2023-01-12T09:28:07.381Z,38.47
2023-01-12T09:30:38.806Z,41.03
2023-01-12T09:33:10.255Z,40.40
2023-01-12T09:35:41.695Z,41.70
2023-01-12T09:38:13.143Z,35.60
2023-01-12T09:40:44.782Z,40.55
2023-01-12T09:43:16.234Z,40.58
2023-01-12T09:45:47.676Z,36.10
2023-01-12T09:48:20.473Z,34.72
2023-01-12T09:51:04.498Z,37.42
2023-01-12T09:53:39.419Z,35.00
2023-01-12T09:56:16.630Z,42.30
2023-01-12T09:59:19.690Z,41.92
2023-01-12T10:01:53.173Z,38.03
2023-01-12T10:04:25.373Z,49.03
2023-01-12T10:06:56.873Z,50.78
2023-01-12T10:09:28.348Z,45.38
2023-01-12T10:12:26.774Z,47.50
2023-01-12T10:15:07.431Z,48.05
2023-01-12T10:17:51.547Z,50.97
2023-01-12T10:20:30.184Z,42.75
2023-01-12T10:23:08.721Z,42.83
2023-01-12T10:25:47.075Z,46.78
2023-01-12T10:28:27.819Z,40.40
2023-01-12T10:31:00.295Z,47.53
2023-01-12T10:33:33.930Z,45.20
2023-01-12T10:36:10.554Z,42.33
2023-01-12T10:39:03.892Z,38.50
2023-01-12T10:41:36.432Z,43.70
2023-01-12T10:44:16.082Z,45.92
2023-01-12T10:47:08.485Z,43.92
2023-01-12T10:49:39.931Z,49.13
2023-01-12T10:52:31.938Z,46.00
2023-01-12T10:55:04.734Z,40.57
2023-01-12T10:57:36.218Z,39.10
2023-01-12T11:00:20.542Z,40.90
2023-01-12T11:02:52.565Z,43.63
2023-01-12T11:05:35.792Z,41.30
2023-01-12T11:08:28.811Z,43.05
2023-01-12T11:11:15.104Z,39.13
2023-01-12T11:13:46.629Z,41.67
2023-01-12T11:16:25.496Z,48.37
2023-01-12T11:19:19.985Z,47.60
2023-01-12T11:21:57.527Z,46.00
2023-01-12T11:24:49.371Z,38.72
2023-01-12T11:27:39.774Z,44.10
2023-01-12T11:30:30.234Z,40.05
2023-01-12T11:33:05.388Z,47.97
2023-01-12T11:35:44.955Z,48.42
2023-01-12T11:38:31.634Z,42.97
2023-01-12T11:41:07.735Z,52.72
2023-01-12T11:44:22.540Z,44.17
2023-01-12T11:47:05.210Z,44.30
2023-01-12T11:49:47.728Z,47.35
2023-01-12T11:52:19.399Z,43.67
2023-01-12T11:54:50.848Z,47.47
2023-01-12T11:57:55.834Z,48.03
2023-01-12T12:00:54.661Z,47.90
2023-01-12T12:03:31.497Z,44.03
2023-01-12T12:06:14.994Z,47.90
2023-01-12T12:08:58.359Z,46.03
2023-01-12T12:11:52.610Z,44.50
2023-01-12T12:14:50.422Z,40.55
2023-01-12T12:17:45.220Z,39.58
2023-01-12T12:20:34.120Z,37.45
2023-01-12T12:23:23.594Z,37.83
2023-01-12T12:26:17.389Z,33.22
2023-01-12T12:29:18.120Z,25.10
2023-01-12T12:32:27.052Z,24.87
2023-01-12T12:35:23.021Z,30.33
2023-01-12T12:38:08.538Z,19.50
2023-01-12T12:40:59.715Z,25.80
2023-01-12T12:43:33.972Z,19.67
2023-01-12T12:46:17.609Z,19.60
2023-01-12T12:49:00.714Z,23.25
2023-01-12T12:51:34.800Z,24.02
2023-01-12T12:54:11.686Z,18.73
2023-01-12T12:56:44.169Z,17.97
2023-01-12T12:59:41.736Z,14.55
2023-01-12T13:02:52.306Z,12.95
2023-01-12T13:05:44.412Z,18.35
2023-01-12T13:08:23.225Z,14.32
2023-01-12T13:10:57.605Z,13.02
2023-01-12T13:13:33.335Z,17.77
2023-01-12T13:16:20.323Z,19.88
2023-01-12T13:18:51.799Z,16.58
2023-01-12T13:21:49.408Z,14.07
2023-01-12T13:24:47.357Z,14.63
2023-01-12T13:27:57.316Z,12.27
2023-01-12T13:30:28.718Z,14.05
2023-01-12T13:33:18.417Z,16.52
2023-01-12T13:35:49.744Z,14.30
2023-01-12T13:38:33.497Z,15.57
2023-01-12T13:41:14.008Z,17.77
2023-01-12T13:43:55.858Z,17.50
2023-01-12T13:46:31.043Z,16.93
2023-01-12T13:49:03.452Z,20.08
2023-01-12T13:51:40.430Z,20.35
2023-01-12T13:54:15.801Z,23.48
2023-01-12T13:56:56.688Z,19.30
2023-01-12T13:59:28.491Z,18.75
2023-01-12T14:02:01.093Z,18.33
2023-01-12T14:04:41.723Z,16.23
2023-01-12T14:07:31.399Z,17.95
2023-01-12T14:10:29.980Z,16.73
2023-01-12T14:13:06.640Z,17.70
2023-01-12T14:15:40.027Z,13.07
2023-01-12T14:18:20.233Z,14.00
2023-01-12T14:20:54.535Z,16.15
2023-01-12T14:23:25.881Z,11.55
2023-01-12T14:26:07.540Z,15.00
2023-01-12T14:28:47.037Z,10.40
2023-01-12T14:31:30.283Z,9.67
2023-01-12T14:34:04.069Z,11.98
2023-01-12T14:36:42.005Z,10.45
2023-01-12T14:39:18.494Z,8.32
2023-01-12T14:41:52.337Z,7.75
2023-01-12T14:44:26.015Z,10.97
2023-01-12T14:46:57.496Z,10.98
2023-01-12T14:49:34.383Z,8.90
2023-01-12T14:52:31.436Z,10.07
2023-01-12T14:55:17.885Z,10.02
2023-01-12T14:57:53.215Z,9.32
2023-01-12T15:00:27.937Z,8.85
2023-01-12T15:03:01.720Z,5.73
2023-01-12T15:05:34.266Z,7.38
2023-01-12T15:08:08.663Z,6.05
2023-01-12T15:10:41.060Z,5.93
2023-01-12T15:13:22.066Z,5.93
2023-01-12T15:15:55.504Z,5.70
2023-01-12T15:18:26.990Z,4.13
2023-01-12T15:20:59.145Z,6.40
2023-01-12T15:23:37.457Z,7.10
2023-01-12T15:26:08.908Z,6.67
2023-01-12T15:28:40.491Z,5.72
2023-01-12T15:31:37.280Z,9.40
2023-01-12T15:34:11.462Z,9.32
2023-01-12T15:36:42.931Z,10.48
2023-01-12T15:39:15.888Z,9.85
2023-01-12T15:41:47.448Z,9.57
2023-01-12T15:44:20.944Z,8.40
2023-01-12T15:46:53.040Z,10.50
2023-01-12T15:49:24.466Z,10.47
2023-01-12T15:51:55.964Z,11.77
2023-01-12T15:54:27.473Z,13.77
2023-01-12T15:56:58.907Z,13.85
2023-01-12T15:59:30.374Z,12.10
2023-01-12T16:02:02.148Z,12.80
2023-01-12T16:04:42.876Z,12.15
2023-01-12T16:07:15.041Z,12.45
2023-01-12T16:09:46.552Z,11.05
2023-01-12T16:12:18.169Z,10.13
2023-01-12T16:14:49.934Z,14.13
2023-01-12T16:17:21.374Z,13.52
2023-01-12T16:19:52.985Z,16.92
2023-01-12T16:22:26.240Z,19.92
2023-01-12T16:24:57.738Z,21.15
2023-01-12T16:27:29.467Z,18.30
2023-01-12T16:30:01.041Z,20.13
2023-01-12T16:32:32.953Z,18.00
2023-01-12T16:35:04.637Z,16.50
2023-01-12T16:37:36.094Z,19.73
2023-01-12T16:40:08.237Z,20.77
2023-01-12T16:42:39.648Z,17.87
2023-01-12T16:45:11.071Z,22.05
2023-01-12T16:47:42.506Z,19.10
2023-01-12T16:50:14.226Z,22.80
2023-01-12T16:52:45.663Z,21.63
2023-01-12T16:55:17.189Z,19.33
2023-01-12T16:57:48.569Z,22.38
2023-01-12T17:00:20.380Z,18.60
2023-01-12T17:02:51.965Z,20.65
2023-01-12T17:05:23.510Z,20.85
2023-01-12T17:07:55.157Z,20.80
2023-01-12T17:10:27.375Z,21.47
2023-01-12T17:13:00.787Z,21.48
2023-01-12T17:15:34.028Z,20.10
2023-01-12T17:18:05.742Z,25.42
2023-01-12T17:20:37.363Z,25.35
2023-01-12T17:23:08.982Z,24.92
2023-01-12T17:25:40.472Z,17.73
2023-01-12T17:28:12.377Z,23.30
2023-01-12T17:30:44.499Z,21.15
2023-01-12T17:33:16.635Z,27.63
2023-01-12T17:35:48.067Z,21.63
2023-01-12T17:38:19.516Z,21.60
2023-01-12T17:40:50.961Z,24.20
2023-01-12T17:43:22.632Z,23.70
2023-01-12T17:45:54.490Z,20.08
2023-01-12T17:48:25.916Z,21.57
2023-01-12T17:50:58.561Z,20.27
2023-01-12T17:53:30.056Z,23.95
2023-01-12T17:56:02.792Z,25.13
2023-01-12T17:58:34.328Z,24.07
2023-01-12T18:01:13.207Z,23.17
2023-01-12T18:03:45.039Z,21.73
2023-01-12T18:06:25.855Z,22.60
2023-01-12T18:08:58.346Z,22.60
2023-01-12T18:11:30.468Z,21.63
2023-01-12T18:14:02.261Z,20.17
2023-01-12T18:16:35.052Z,27.10
2023-01-12T18:19:08.080Z,22.00
2023-01-12T18:21:39.559Z,20.80
2023-01-12T18:24:10.950Z,22.30
2023-01-12T18:26:42.575Z,21.52
2023-01-12T18:29:14.073Z,21.52
2023-01-12T18:31:45.556Z,18.42
2023-01-12T18:34:17.086Z,26.00
2023-01-12T18:36:48.536Z,21.67
2023-01-12T18:39:19.994Z,20.27
2023-01-12T18:41:51.602Z,21.25
2023-01-12T18:44:24.585Z,23.45
2023-01-12T18:46:56.075Z,21.00
2023-01-12T18:49:32.754Z,26.25
2023-01-12T18:52:04.585Z,18.40
2023-01-12T18:54:36.361Z,14.88
2023-01-12T18:57:07.871Z,16.42
2023-01-12T18:59:41.732Z,15.45
2023-01-12T19:02:14.660Z,18.50
2023-01-12T19:04:49.752Z,20.05
2023-01-12T19:07:24.298Z,17.50
2023-01-12T19:09:56.701Z,17.50
2023-01-12T19:12:28.278Z,22.05
2023-01-12T19:14:59.708Z,19.27
2023-01-12T19:17:31.800Z,20.48
2023-01-12T19:20:07.511Z,17.48
2023-01-12T19:22:38.947Z,16.73
2023-01-12T19:25:15.516Z,19.73
2023-01-12T19:27:47.059Z,21.33
2023-01-12T19:30:18.583Z,23.55
2023-01-12T19:32:50.107Z,16.67
2023-01-12T19:35:21.737Z,19.45
2023-01-12T19:37:53.199Z,23.40
2023-01-12T19:40:24.596Z,18.15
2023-01-12T19:42:56.038Z,18.38
2023-01-12T19:45:27.523Z,17.23
2023-01-12T19:47:58.950Z,15.27
2023-01-12T19:50:30.409Z,13.50
2023-01-12T19:53:01.936Z,14.13
2023-01-12T19:55:33.633Z,14.23
2023-01-12T19:58:05.087Z,14.90
2023-01-12T20:00:42.695Z,12.68
2023-01-12T20:03:16.616Z,13.38
2023-01-12T20:05:49.933Z,10.35
2023-01-12T20:08:24.089Z,10.30
2023-01-12T20:10:57.617Z,10.57
2023-01-12T20:13:29.108Z,13.40
2023-01-12T20:16:06.720Z,13.95
2023-01-12T20:18:38.229Z,11.85
2023-01-12T20:21:11.261Z,13.02
2023-01-12T20:23:42.701Z,16.08
2023-01-12T20:26:14.167Z,17.33
2023-01-12T20:28:45.654Z,21.67
2023-01-12T20:31:17.104Z,25.85
2023-01-12T20:33:49.066Z,25.25
2023-01-12T20:36:20.565Z,29.40
2023-01-12T20:38:52.273Z,33.80
2023-01-12T20:41:23.770Z,28.45
2023-01-12T20:43:55.215Z,28.30
2023-01-12T20:46:26.744Z,30.38
2023-01-12T20:48:58.321Z,24.83
2023-01-12T20:51:30.461Z,24.70
2023-01-12T20:54:04.010Z,23.25
2023-01-12T20:56:35.725Z,27.10
2023-01-12T20:59:08.413Z,23.67
2023-01-12T21:01:40.103Z,24.98
2023-01-12T21:04:11.634Z,29.33
2023-01-12T21:06:43.165Z,28.65
2023-01-12T21:09:14.660Z,30.00
2023-01-12T21:11:46.093Z,29.85
2023-01-12T21:14:17.982Z,24.83
2023-01-12T21:16:49.515Z,26.02
2023-01-12T21:19:21.001Z,26.77
2023-01-12T21:21:52.468Z,27.70
2023-01-12T21:24:24.691Z,27.10
2023-01-12T21:26:56.194Z,21.07
2023-01-12T21:29:27.593Z,28.25
2023-01-12T21:31:59.053Z,26.23
2023-01-12T21:34:30.518Z,29.08
2023-01-12T21:37:01.976Z,27.27
2023-01-12T21:39:33.673Z,23.23
2023-01-12T21:42:05.143Z,27.25
2023-01-12T21:44:36.624Z,26.75
2023-01-12T21:47:08.114Z,21.83
2023-01-12T21:49:39.621Z,23.10
2023-01-12T21:52:11.280Z,29.88
2023-01-12T21:54:42.743Z,26.53
2023-01-12T21:57:14.180Z,26.92
2023-01-12T21:59:45.632Z,26.70
2023-01-12T22:02:17.110Z,26.83
2023-01-12T22:04:48.577Z,29.85
2023-01-12T22:07:20.005Z,26.48
2023-01-12T22:09:51.452Z,27.08
2023-01-12T22:12:22.885Z,26.77
2023-01-12T22:14:54.328Z,33.90
2023-01-12T22:17:25.751Z,31.77
2023-01-12T22:19:57.140Z,30.15
2023-01-12T22:22:28.560Z,33.97
2023-01-12T22:25:00.036Z,34.10
2023-01-12T22:27:31.463Z,32.38
2023-01-12T22:30:04.641Z,37.97
2023-01-12T22:32:36.051Z,27.95
2023-01-12T22:35:08.558Z,33.95
2023-01-12T22:37:40.905Z,35.63
2023-01-12T22:40:12.853Z,35.43
2023-01-12T22:42:44.399Z,35.60
2023-01-12T22:45:15.936Z,29.27
2023-01-12T22:47:54.488Z,31.97
2023-01-12T22:50:26.009Z,35.40
2023-01-12T22:52:57.427Z,31.85
2023-01-12T22:55:28.928Z,32.65
2023-01-12T22:58:00.337Z,29.30
2023-01-12T23:00:31.793Z,38.70
2023-01-12T23:03:07.451Z,33.08
2023-01-12T23:06:05.520Z,31.10
2023-01-12T23:08:36.956Z,34.47
2023-01-12T23:11:12.367Z,36.53
2023-01-12T23:13:44.696Z,37.87
2023-01-12T23:16:17.863Z,33.55
2023-01-12T23:18:49.580Z,34.58
2023-01-12T23:21:23.645Z,36.70
2023-01-12T23:23:57.312Z,31.38
2023-01-12T23:26:31.839Z,40.75
2023-01-12T23:29:03.561Z,39.80
2023-01-12T23:31:35.119Z,39.07
2023-01-12T23:34:06.565Z,32.72
2023-01-12T23:36:37.949Z,42.05
2023-01-12T23:39:10.988Z,43.50
2023-01-12T23:41:43.825Z,44.85
2023-01-12T23:44:15.262Z,44.78
2023-01-12T23:46:46.711Z,41.40
2023-01-12T23:49:18.165Z,39.88
2023-01-12T23:51:49.606Z,35.10
2023-01-12T23:54:21.036Z,42.65
2023-01-12T23:56:52.500Z,40.53
2023-01-12T23:59:23.922Z,42.75
